aviador You're here:

KBMG Decoded Metar

BLOOMINGTON in IN, USA
Report Time2017-08-18 09:53:00
UTC Time2017-08-18 10:49:45
Flight Rules vfr VFR
Wind260° at 03 kt
W.Decomp.*RWY 24: 2.8 kt HW 1.1 kt RCW
RWY 35: 0.1 kt HW 3 kt LCW
W.Rank260° ranks 12
Current wind is below 260° avg. (6.9)
Visibility9999 m
Phenomena:N/A
Clouds:N/A
Expected CloudBase > 800 ft AGL from Temp-Dew spread
CeilingNone
Temp20°C (ISA +7)
Dew Point18°C (88% RH)
QNH1012 hPa
Density Alt1,936 ft
Elevation843 ft
Report Wrong Elevation
Raw Report
METAR KBMG 180953Z AUTO 26003KT 10SM CLR 20/18 A2988 RMK AO2 SLP108
T02000178=

Extra information for KBMG:More info

Metar Taf Metar & Taf Last 4 Metars F.Rules Stats Wind Profile Meteogram Temp Stats Airport Information Weather charts Add Link Nearby VenuesMetar ALERT Operation Metar Decoded Social comments

AIRNAV info for KBMG